Time;durP1;ratioP1;P1;durP2;ratioP2;P2;SDS_P1;SDS_P2;PMS_P1;PMS_P2;Temp;Humidity;BMP_temperature;BMP_pressure;BME280_temperature;BME280_humidity;BME280_pressure;Samples;Min_cycle;Max_cycle;Signal;HPM_P1;HPM_P2
2022/04/27 05:55:16;;;;;;;2.25;1.98;;;;;;;;;;6206089;23;20024;-87
2022/04/27 05:57:42;;;;;;;2.47;2.28;;;;;;;;;;6216366;23;20435;-87
2022/04/27 06:00:08;;;;;;;2.63;2.08;;;;;;;;;;6216908;23;20004;-87
2022/04/27 06:02:33;;;;;;;4.32;1.88;;;;;;;;;;6191170;23;20024;-87
2022/04/27 09:41:38;;;;;;;1.25;1.15;;;;;;;;;;6206608;23;20020;-88
2022/04/27 09:44:04;;;;;;;1.83;1.55;;;;;;;;;;6216829;23;20010;-89
2022/04/27 09:46:29;;;;;;;3.03;1.40;;;;;;;;;;6216783;23;20015;-86
2022/04/27 09:49:11;;;;;;;1.50;1.40;;;;;;;;;;6216616;23;20012;-87
2022/04/27 09:51:48;;;;;;;1.60;1.50;;;;;;;;;;6216753;23;20011;-86
2022/04/27 09:54:21;;;;;;;3.22;1.42;;;;;;;;;;6190031;23;20019;-86
2022/04/27 09:56:57;;;;;;;1.45;1.35;;;;;;;;;;6190103;23;20008;-85
2022/04/27 09:59:30;;;;;;;1.70;1.50;;;;;;;;;;6216367;23;20379;-86
2022/04/27 10:01:58;;;;;;;2.53;1.60;;;;;;;;;;6190270;23;20004;-87
2022/04/27 10:04:26;;;;;;;3.65;1.60;;;;;;;;;;6216558;23;20004;-89
2022/04/27 10:06:52;;;;;;;1.90;1.50;;;;;;;;;;6216498;23;20340;-89
2022/04/27 10:09:18;;;;;;;1.80;1.52;;;;;;;;;;6216270;23;20005;-90
2022/04/27 10:11:44;;;;;;;1.88;1.75;;;;;;;;;;6216560;23;20309;-88
2022/04/27 10:14:11;;;;;;;1.30;1.20;;;;;;;;;;6216440;23;20008;-88
2022/04/27 10:16:36;;;;;;;1.88;1.02;;;;;;;;;;6216783;23;20015;-90
2022/04/27 10:19:02;;;;;;;1.60;1.50;;;;;;;;;;6216527;23;20091;-88
2022/04/27 10:21:57;;;;;;;2.08;1.80;;;;;;;;;;6216512;23;20001;-88
2022/04/27 10:24:37;;;;;;;1.70;1.60;;;;;;;;;;6216132;23;20005;-88
2022/04/27 10:27:23;;;;;;;1.88;1.42;;;;;;;;;;6216370;23;20319;-88
2022/04/27 10:29:51;;;;;;;2.03;1.70;;;;;;;;;;6216474;23;20004;-87
2022/04/27 10:32:40;;;;;;;1.55;1.45;;;;;;;;;;6216511;23;20031;-89
2022/04/27 10:35:11;;;;;;;1.70;1.60;;;;;;;;;;6216400;23;20027;-91
2022/04/27 10:37:54;;;;;;;2.53;1.60;;;;;;;;;;6216164;23;20000;-90
2022/04/27 10:40:38;;;;;;;1.58;1.48;;;;;;;;;;6216546;23;20471;-94
2022/04/27 10:43:15;;;;;;;1.70;1.60;;;;;;;;;;6216660;23;20088;-93
2022/04/27 10:45:45;;;;;;;1.70;1.60;;;;;;;;;;6189914;23;20047;-93
2022/04/27 10:48:16;;;;;;;1.85;1.60;;;;;;;;;;6217978;23;20040;-90
2022/04/27 10:51:00;;;;;;;2.05;1.95;;;;;;;;;;6216521;23;20028;-86
2022/04/27 10:53:27;;;;;;;2.90;1.70;;;;;;;;;;6189621;23;20032;-90
2022/04/27 10:55:57;;;;;;;3.20;1.73;;;;;;;;;;6217451;23;20005;-91
2022/04/27 10:58:37;;;;;;;1.75;1.65;;;;;;;;;;6216569;23;20005;-93
2022/04/27 11:01:11;;;;;;;1.80;1.55;;;;;;;;;;6216874;23;20011;-92
2022/04/27 11:03:38;;;;;;;2.00;1.80;;;;;;;;;;6217295;23;20064;-91
2022/04/27 11:06:10;;;;;;;1.80;1.70;;;;;;;;;;6189706;23;20009;-90
2022/04/27 11:09:08;;;;;;;3.50;2.08;;;;;;;;;;6189600;23;20043;-90
2022/04/27 11:11:59;;;;;;;2.05;1.95;;;;;;;;;;6217140;23;20004;-92
2022/04/27 11:14:34;;;;;;;2.30;2.10;;;;;;;;;;6190586;23;20071;-92
2022/04/27 11:17:00;;;;;;;4.35;2.20;;;;;;;;;;6216690;23;20032;-91
2022/04/27 11:19:39;;;;;;;2.42;2.22;;;;;;;;;;6217529;23;20001;-90
2022/04/27 11:22:15;;;;;;;;;;;;;;;;;;6218525;23;20032;-91
2022/04/27 11:24:48;;;;;;;2.75;2.08;;;;;;;;;;6191741;23;19907;-92
2022/04/27 11:27:26;;;;;;;2.90;2.70;;;;;;;;;;6191911;23;20009;-91
2022/04/27 11:29:52;;;;;;;2.45;2.20;;;;;;;;;;6218256;23;19997;-91
2022/04/27 11:32:17;;;;;;;3.50;2.10;;;;;;;;;;6218626;23;20032;-93
2022/04/27 11:34:48;;;;;;;1.75;1.65;;;;;;;;;;6239387;23;20331;-92
2022/04/27 11:37:18;;;;;;;2.75;2.05;;;;;;;;;;6223107;23;20008;-94
2022/04/27 11:39:45;;;;;;;3.47;2.15;;;;;;;;;;6218317;23;20005;-95
2022/04/27 11:42:12;;;;;;;2.67;2.17;;;;;;;;;;6218579;23;20050;-92
2022/04/27 11:44:41;;;;;;;2.60;2.40;;;;;;;;;;6218501;23;20011;-93
2022/04/27 17:12:10;;;;;;;4.30;3.13;;;;;;;;;;6163924;23;20368;-83
2022/04/27 17:14:35;;;;;;;4.10;3.42;;;;;;;;;;6217126;23;20474;-83
2022/04/27 17:17:02;;;;;;;6.32;5.38;;;;;;;;;;6217903;23;20000;-82
2022/04/27 17:19:27;;;;;;;5.10;4.05;;;;;;;;;;6190927;23;20024;-82
2022/04/27 17:21:53;;;;;;;4.13;3.72;;;;;;;;;;6217992;23;20523;-82
2022/04/27 17:24:19;;;;;;;7.72;3.90;;;;;;;;;;6217717;23;20008;-83
2022/04/27 17:29:29;;;;;;;5.47;3.80;;;;;;;;;;6218158;23;20028;-82
2022/04/27 17:31:54;;;;;;;4.10;3.67;;;;;;;;;;6217754;23;20000;-82
2022/04/27 17:34:20;;;;;;;5.25;3.08;;;;;;;;;;6216510;23;20008;-83
2022/04/27 17:36:45;;;;;;;5.10;3.50;;;;;;;;;;6217042;23;20328;-83
2022/04/27 17:39:11;;;;;;;4.53;3.40;;;;;;;;;;6190284;23;19993;-83
2022/04/27 17:41:36;;;;;;;4.32;3.40;;;;;;;;;;6190338;23;20376;-83
2022/04/27 17:44:02;;;;;;;4.80;3.72;;;;;;;;;;6215892;23;20005;-82
2022/04/27 17:46:27;;;;;;;5.03;3.58;;;;;;;;;;6217098;23;20032;-83
2022/04/27 17:48:53;;;;;;;8.82;3.50;;;;;;;;;;6217157;23;20412;-82
2022/04/27 17:51:18;;;;;;;4.90;3.60;;;;;;;;;;6217153;23;19997;-85
2022/04/27 17:53:44;;;;;;;5.28;3.67;;;;;;;;;;6190840;23;20412;-83
2022/04/27 17:56:10;;;;;;;4.18;3.78;;;;;;;;;;6217008;23;20031;-83
2022/04/27 17:58:37;;;;;;;5.05;3.47;;;;;;;;;;6190422;23;20004;-85
2022/04/27 18:01:02;;;;;;;5.00;3.80;;;;;;;;;;6217307;23;20058;-86
2022/04/27 18:03:27;;;;;;;7.32;4.53;;;;;;;;;;6190348;23;20035;-83
2022/04/27 18:05:53;;;;;;;4.13;3.67;;;;;;;;;;6216100;23;20004;-82
2022/04/27 18:08:18;;;;;;;3.88;2.95;;;;;;;;;;6189794;23;20008;-82
2022/04/27 18:10:47;;;;;;;6.38;5.25;;;;;;;;;;6216269;23;20494;-81
2022/04/27 18:13:13;;;;;;;6.18;4.15;;;;;;;;;;6216128;23;20013;-82
2022/04/27 18:15:47;;;;;;;4.75;3.70;;;;;;;;;;6189742;23;19997;-81
2022/04/27 18:18:24;;;;;;;4.13;2.95;;;;;;;;;;6216126;23;20008;-81
2022/04/27 18:20:52;;;;;;;4.80;2.88;;;;;;;;;;6216256;23;20012;-81
2022/04/27 18:23:18;;;;;;;4.85;3.05;;;;;;;;;;6189346;23;20009;-80
2022/04/27 18:25:44;;;;;;;4.18;2.88;;;;;;;;;;6216455;23;20110;-80
2022/04/27 18:28:10;;;;;;;4.07;2.92;;;;;;;;;;6216159;23;20004;-82
2022/04/27 18:30:37;;;;;;;3.78;2.85;;;;;;;;;;6215999;23;20022;-82
2022/04/27 18:33:03;;;;;;;4.68;3.15;;;;;;;;;;6189636;23;20428;-88
2022/04/27 18:35:29;;;;;;;4.45;2.70;;;;;;;;;;6189744;23;20000;-87
2022/04/27 18:37:56;;;;;;;4.68;2.95;;;;;;;;;;6189573;23;20119;-85
2022/04/27 18:40:25;;;;;;;3.22;2.92;;;;;;;;;;6189697;23;20336;-86
2022/04/27 18:42:51;;;;;;;4.35;3.22;;;;;;;;;;6217005;23;20036;-83
2022/04/27 18:50:46;;;;;;;3.35;3.05;;;;;;;;;;6217437;23;20455;-82
2022/04/27 18:53:14;;;;;;;4.30;3.00;;;;;;;;;;6191834;23;20339;-82
2022/04/27 18:55:40;;;;;;;3.45;2.72;;;;;;;;;;6216555;23;20005;-81
2022/04/27 18:58:06;;;;;;;5.32;2.80;;;;;;;;;;6216484;23;20368;-80
2022/04/27 19:00:31;;;;;;;3.15;2.83;;;;;;;;;;6216054;23;20086;-82
2022/04/27 19:02:57;;;;;;;5.25;3.25;;;;;;;;;;6216298;23;20083;-82
2022/04/27 19:05:23;;;;;;;2.90;2.67;;;;;;;;;;6216934;23;20059;-82
2022/04/27 19:07:49;;;;;;;4.60;3.22;;;;;;;;;;6219101;23;20004;-81
2022/04/27 19:10:20;;;;;;;5.20;3.50;;;;;;;;;;6216895;23;20039;-82
2022/04/27 19:12:46;;;;;;;6.40;3.70;;;;;;;;;;6185304;23;20021;-82
2022/04/27 19:15:12;;;;;;;4.90;3.97;;;;;;;;;;6186470;23;20016;-88
2022/04/27 19:17:37;;;;;;;5.13;4.28;;;;;;;;;;6185019;23;20009;-86
2022/04/27 19:20:04;;;;;;;4.47;3.50;;;;;;;;;;6185259;23;20015;-87
2022/04/27 19:22:29;;;;;;;6.72;4.30;;;;;;;;;;6186958;23;20324;-87
2022/04/27 19:24:55;;;;;;;6.50;4.38;;;;;;;;;;6185458;23;20013;-89
2022/04/27 19:27:20;;;;;;;6.95;4.93;;;;;;;;;;6185151;23;20016;-86
2022/04/27 19:29:46;;;;;;;7.30;5.18;;;;;;;;;;6184914;23;20084;-79
2022/04/27 19:32:13;;;;;;;5.63;4.90;;;;;;;;;;6186796;23;20321;-81
2022/04/27 19:34:39;;;;;;;6.97;5.43;;;;;;;;;;6186328;23;20499;-80
2022/04/27 19:37:08;;;;;;;6.93;5.32;;;;;;;;;;6186004;23;20001;-80
2022/04/27 19:42:01;;;;;;;6.93;5.60;;;;;;;;;;6216410;23;20390;-88
2022/04/27 19:44:27;;;;;;;4.18;3.78;;;;;;;;;;6192802;23;20005;-87
2022/04/27 19:46:53;;;;;;;5.68;4.38;;;;;;;;;;6218679;23;20005;-87
2022/04/27 19:49:18;;;;;;;4.82;3.72;;;;;;;;;;6217804;23;20009;-85
2022/04/27 19:51:44;;;;;;;6.43;3.83;;;;;;;;;;6218451;23;20324;-83
2022/04/27 19:54:11;;;;;;;5.43;4.53;;;;;;;;;;6217824;23;20078;-86
2022/04/27 19:56:38;;;;;;;5.45;4.10;;;;;;;;;;6218452;23;20011;-85
2022/04/27 19:59:05;;;;;;;5.70;4.18;;;;;;;;;;6218737;23;20028;-84
2022/04/27 20:01:31;;;;;;;4.22;3.55;;;;;;;;;;6218660;23;20008;-87
2022/04/27 20:03:57;;;;;;;5.05;3.80;;;;;;;;;;6191666;23;20489;-85
2022/04/27 20:06:23;;;;;;;6.55;4.30;;;;;;;;;;6218764;23;20004;-88
2022/04/27 20:08:51;;;;;;;4.65;3.85;;;;;;;;;;6193958;23;20450;-86
2022/04/27 20:11:17;;;;;;;5.20;3.88;;;;;;;;;;6191925;23;20063;-88
2022/04/27 20:13:45;;;;;;;3.75;3.15;;;;;;;;;;6191374;23;20007;-93
2022/04/27 20:16:12;;;;;;;4.00;3.42;;;;;;;;;;6191495;23;20044;-85
2022/04/27 20:18:38;;;;;;;5.18;3.20;;;;;;;;;;6217865;23;20059;-87
2022/04/27 20:21:04;;;;;;;3.78;3.40;;;;;;;;;;6192001;23;20437;-88
2022/04/27 20:23:29;;;;;;;4.00;3.60;;;;;;;;;;6191120;23;20011;-88
2022/04/27 20:25:55;;;;;;;3.42;3.10;;;;;;;;;;6217408;23;20336;-86
2022/04/27 20:28:23;;;;;;;3.47;3.13;;;;;;;;;;6218038;23;20439;-88
2022/04/27 20:30:51;;;;;;;4.13;3.65;;;;;;;;;;6218457;23;20075;-89
2022/04/27 20:33:16;;;;;;;7.13;3.45;;;;;;;;;;6218691;23;20080;-90
2022/04/27 20:35:42;;;;;;;5.05;3.65;;;;;;;;;;6219051;23;20001;-89
2022/04/27 20:38:09;;;;;;;6.15;3.50;;;;;;;;;;6218197;23;20005;-90
2022/04/27 20:40:35;;;;;;;3.92;3.15;;;;;;;;;;6218626;23;20023;-87
2022/04/27 20:43:01;;;;;;;6.38;3.45;;;;;;;;;;6219252;23;20387;-87
2022/04/27 20:45:28;;;;;;;5.25;3.42;;;;;;;;;;6219079;23;20036;-93
2022/04/27 20:47:56;;;;;;;4.68;3.53;;;;;;;;;;6192918;23;20434;-92
2022/04/27 20:50:22;;;;;;;3.92;3.22;;;;;;;;;;6219787;23;20482;-92
2022/04/27 20:52:47;;;;;;;4.72;3.10;;;;;;;;;;6219532;23;20089;-92
2022/04/27 20:55:13;;;;;;;4.07;3.20;;;;;;;;;;6193259;23;20001;-92
2022/04/27 20:57:39;;;;;;;3.25;2.92;;;;;;;;;;6219573;23;20072;-91
2022/04/27 21:00:12;;;;;;;6.00;3.03;;;;;;;;;;6219597;23;20028;-92
2022/04/27 21:02:39;;;;;;;4.32;3.53;;;;;;;;;;6219627;23;20008;-92
2022/04/27 21:05:06;;;;;;;3.90;3.38;;;;;;;;;;6219591;23;20076;-93
2022/04/27 21:07:32;;;;;;;4.78;3.03;;;;;;;;;;6219970;23;20005;-92
2022/04/27 21:09:58;;;;;;;3.80;3.40;;;;;;;;;;6193349;23;20146;-93
2022/04/27 21:12:24;;;;;;;3.92;3.28;;;;;;;;;;6219909;23;20076;-93
2022/04/27 21:14:49;;;;;;;3.72;3.25;;;;;;;;;;6219279;23;20068;-93
2022/04/27 21:17:15;;;;;;;4.07;3.20;;;;;;;;;;6193053;23;20005;-93
2022/04/27 21:19:41;;;;;;;4.95;3.50;;;;;;;;;;6219788;23;20036;-91
2022/04/27 21:22:06;;;;;;;4.57;3.78;;;;;;;;;;6219871;23;20083;-93
2022/04/27 21:24:32;;;;;;;4.07;3.60;;;;;;;;;;6218841;23;20036;-92
2022/04/27 21:26:59;;;;;;;4.32;3.90;;;;;;;;;;6219470;23;20000;-92
2022/04/27 21:29:29;;;;;;;5.35;3.78;;;;;;;;;;6219965;23;20019;-93
2022/04/27 21:31:58;;;;;;;3.88;3.13;;;;;;;;;;6193238;23;20011;-94
2022/04/27 21:34:24;;;;;;;5.25;3.28;;;;;;;;;;6217926;23;20339;-84
2022/04/27 21:36:50;;;;;;;5.28;4.05;;;;;;;;;;6216961;23;20076;-84
2022/04/27 21:39:16;;;;;;;4.45;3.78;;;;;;;;;;6216738;23;20109;-85
2022/04/27 21:41:41;;;;;;;4.47;3.95;;;;;;;;;;6216549;23;20091;-84
2022/04/27 21:44:07;;;;;;;4.53;3.63;;;;;;;;;;6216873;23;20027;-85
2022/04/27 21:46:34;;;;;;;4.03;3.63;;;;;;;;;;6190223;23;20035;-84
2022/04/27 21:48:59;;;;;;;4.93;3.40;;;;;;;;;;6217014;23;20001;-84
2022/04/27 21:51:25;;;;;;;4.88;4.00;;;;;;;;;;6190222;23;20408;-84
2022/04/27 21:53:51;;;;;;;4.15;3.47;;;;;;;;;;6216585;23;20408;-84
2022/04/27 21:56:16;;;;;;;4.55;3.28;;;;;;;;;;6216916;23;20067;-84
2022/04/27 21:58:42;;;;;;;4.90;3.83;;;;;;;;;;6190065;23;20434;-84
2022/04/27 22:01:08;;;;;;;4.75;3.42;;;;;;;;;;6216476;23;20035;-83
2022/04/27 22:06:36;;;;;;;6.30;3.50;;;;;;;;;;6216639;23;20504;-84
2022/04/27 22:09:06;;;;;;;4.78;3.45;;;;;;;;;;6216802;23;20000;-85
2022/04/27 22:11:32;;;;;;;4.55;3.67;;;;;;;;;;6189809;23;20088;-84
2022/04/27 22:13:58;;;;;;;5.25;3.60;;;;;;;;;;6216469;23;20032;-83
2022/04/27 22:16:25;;;;;;;6.47;3.00;;;;;;;;;;6216845;23;20004;-86
2022/04/27 22:18:51;;;;;;;4.18;3.47;;;;;;;;;;6216218;23;20336;-84
